Terminal Aerodrome Forecast
Issued by NWS Jackson, MS

Home | Current Version | Previous Version | Text Only | Print | Product List | Glossary On
Versions: 1 2 3 4 5 6 7 8 9 10 11 12 13 14 15 16
000
FTUS44 KJAN 262321
TAFHBG
TAF
KHBG 262321Z 2700/2724 19007KT P6SM FEW090
     FM270400 17005KT 4SM BR SCT003
     FM270700 17004KT 1SM BR BKN003
     FM270900 18003KT 1/2SM FG OVC001
     FM271400 18006KT P6SM BKN015
     FM271700 19013G20KT P6SM SCT050
     FM272300 19011KT P6SM VCTS BKN050CB=

USA.gov is the U.S. government's official web portal to all federal, state and local government web resources and services.